Time;durP1;ratioP1;P1;durP2;ratioP2;P2;SDS_P1;SDS_P2;PMS_P1;PMS_P2;Temp;Humidity;BMP_temperature;BMP_pressure;BME280_temperature;BME280_humidity;BME280_pressure;Samples;Min_cycle;Max_cycle;Signal;HPM_P1;HPM_P2
2023/07/31 00:00:10;;;;;;;3.83;1.10;;;16.20;99.90;;;;;;5039111;28;20192;-94
2023/07/31 00:02:36;;;;;;;5.88;1.70;;;16.20;99.90;;;;;;5039391;28;20281;-92
2023/07/31 00:05:04;;;;;;;4.05;1.42;;;16.20;99.90;;;;;;5038693;28;20582;-93
2023/07/31 00:07:31;;;;;;;3.50;1.30;;;16.20;99.90;;;;;;5038796;28;20204;-91
2023/07/31 00:09:56;;;;;;;5.82;1.35;;;16.20;99.90;;;;;;5032571;28;20189;-92
2023/07/31 00:12:22;;;;;;;1.92;1.00;;;16.20;99.90;;;;;;5018612;28;20174;-94
2023/07/31 00:14:48;;;;;;;3.42;1.30;;;16.20;99.90;;;;;;5018623;28;20175;-93
2023/07/31 00:17:22;;;;;;;3.17;1.35;;;16.20;99.90;;;;;;5018836;28;20189;-93
2023/07/31 00:19:50;;;;;;;5.35;1.25;;;16.10;99.90;;;;;;5026082;28;20263;-95
2023/07/31 00:22:16;;;;;;;3.65;1.10;;;16.10;99.90;;;;;;5055403;28;20235;-94
2023/07/31 00:24:42;;;;;;;3.35;1.30;;;16.10;99.90;;;;;;5050123;28;20312;-95
2023/07/31 00:27:07;;;;;;;3.55;1.20;;;16.00;99.90;;;;;;5039360;28;20182;-93
2023/07/31 00:29:33;;;;;;;4.72;1.40;;;16.10;99.90;;;;;;5054417;28;20650;-95
2023/07/31 00:31:59;;;;;;;4.50;1.40;;;16.10;99.90;;;;;;5054225;28;20272;-95
2023/07/31 00:34:24;;;;;;;2.80;1.20;;;16.10;99.90;;;;;;5054805;28;20174;-96
2023/07/31 00:37:09;;;;;;;2.13;1.13;;;16.10;99.90;;;;;;5054912;28;20178;-93
2023/07/31 00:39:35;;;;;;;3.90;1.27;;;16.10;99.90;;;;;;5054467;28;20224;-95
2023/07/31 00:42:01;;;;;;;3.05;1.17;;;16.10;99.90;;;;;;5054431;28;20222;-95
2023/07/31 00:44:27;;;;;;;8.25;2.05;;;16.10;99.90;;;;;;5054805;28;20182;-96
2023/07/31 00:46:59;;;;;;;6.47;1.48;;;16.10;99.90;;;;;;5054929;28;20174;-95
2023/07/31 00:49:25;;;;;;;7.45;1.92;;;16.00;99.90;;;;;;5054637;28;20169;-91
2023/07/31 00:51:51;;;;;;;2.78;1.30;;;16.00;99.90;;;;;;5054473;28;20177;-94
2023/07/31 00:54:17;;;;;;;2.65;1.25;;;16.10;99.90;;;;;;5053390;28;20217;-96
2023/07/31 00:56:48;;;;;;;2.75;1.52;;;16.10;99.90;;;;;;5038161;28;20204;-94
2023/07/31 00:59:14;;;;;;;4.57;1.48;;;16.10;99.90;;;;;;5037762;28;20213;-94
2023/07/31 01:01:40;;;;;;;3.08;1.35;;;16.10;99.90;;;;;;5054935;28;20180;-93
2023/07/31 01:04:06;;;;;;;6.85;1.60;;;16.10;99.90;;;;;;5037740;28;20189;-94
2023/07/31 01:06:55;;;;;;;5.32;1.45;;;16.10;99.90;;;;;;5037592;28;20521;-94
2023/07/31 01:09:33;;;;;;;3.13;1.50;;;16.10;99.90;;;;;;5037467;28;20166;-95
2023/07/31 01:12:04;;;;;;;7.57;1.83;;;16.00;99.90;;;;;;5037526;28;20260;-92
2023/07/31 01:14:30;;;;;;;3.00;1.35;;;16.00;99.90;;;;;;5037517;28;20187;-94
2023/07/31 01:16:56;;;;;;;3.88;1.35;;;16.00;99.90;;;;;;5037635;28;20275;-93
2023/07/31 01:19:25;;;;;;;6.10;1.90;;;16.00;99.90;;;;;;5048254;28;20241;-92
2023/07/31 01:21:59;;;;;;;2.85;1.40;;;16.00;99.90;;;;;;5054022;28;20173;-93
2023/07/31 01:24:30;;;;;;;5.40;1.63;;;16.00;99.90;;;;;;5051559;28;20274;-93
2023/07/31 01:27:26;;;;;;;3.30;1.58;;;16.00;99.90;;;;;;5037649;28;20679;-92
2023/07/31 01:30:10;;;;;;;4.78;1.70;;;16.00;99.90;;;;;;5037660;28;20177;-92
2023/07/31 01:32:38;;;;;;;4.65;1.90;;;16.00;99.90;;;;;;5037539;28;20632;-91
2023/07/31 01:35:05;;;;;;;2.55;1.40;;;15.90;99.90;;;;;;5037144;28;20184;-92
2023/07/31 01:37:31;;;;;;;5.38;1.88;;;15.90;99.90;;;;;;5037404;28;20228;-92
2023/07/31 01:39:57;;;;;;;4.82;1.85;;;15.90;99.90;;;;;;5036957;28;20573;-92
2023/07/31 01:42:23;;;;;;;6.93;1.52;;;15.90;99.90;;;;;;5037143;28;20264;-90
2023/07/31 01:44:48;;;;;;;6.82;2.08;;;15.90;99.90;;;;;;5037387;28;20219;-91
2023/07/31 01:47:14;;;;;;;4.47;1.60;;;15.90;99.90;;;;;;5037322;28;20178;-92
2023/07/31 01:49:40;;;;;;;5.85;1.65;;;15.90;99.90;;;;;;5037357;28;20174;-90
2023/07/31 01:52:06;;;;;;;2.72;1.40;;;15.90;99.90;;;;;;5036709;28;20182;-92
2023/07/31 01:54:32;;;;;;;4.75;1.88;;;15.90;99.90;;;;;;5036953;28;20930;-90
2023/07/31 01:56:59;;;;;;;5.18;1.90;;;15.90;99.90;;;;;;5054924;28;20170;-92
2023/07/31 01:59:25;;;;;;;3.65;1.48;;;15.90;99.90;;;;;;5036836;28;20198;-90
2023/07/31 02:01:50;;;;;;;6.38;1.52;;;15.90;99.90;;;;;;5037230;28;20277;-91
2023/07/31 02:04:16;;;;;;;3.20;1.63;;;15.90;99.90;;;;;;5036987;28;20189;-91
2023/07/31 02:07:01;;;;;;;7.47;2.15;;;15.90;99.90;;;;;;5037140;28;20658;-90
2023/07/31 02:09:27;;;;;;;4.50;2.08;;;15.90;99.90;;;;;;5036942;28;20196;-90
2023/07/31 02:11:52;;;;;;;6.13;1.73;;;15.80;99.90;;;;;;5036909;28;20209;-89
2023/07/31 02:14:18;;;;;;;3.45;1.60;;;15.90;99.90;;;;;;5040307;28;20169;-90
2023/07/31 02:16:45;;;;;;;3.78;1.42;;;15.90;99.90;;;;;;5040897;28;20608;-89
2023/07/31 02:19:10;;;;;;;4.13;1.40;;;15.90;99.90;;;;;;5040855;28;20256;-89
2023/07/31 02:21:36;;;;;;;7.53;1.35;;;15.90;99.90;;;;;;5045901;28;20181;-89
2023/07/31 02:24:02;;;;;;;2.58;1.45;;;15.90;99.90;;;;;;5060547;28;20232;-92
2023/07/31 02:26:29;;;;;;;3.13;1.38;;;15.90;99.90;;;;;;5060336;28;20198;-91
2023/07/31 02:28:55;;;;;;;6.25;1.70;;;15.90;99.90;;;;;;5078174;28;20165;-90
2023/07/31 02:31:21;;;;;;;8.88;1.63;;;15.80;99.90;;;;;;5060407;28;20237;-91
2023/07/31 02:33:46;;;;;;;3.83;1.50;;;15.80;99.90;;;;;;5060415;28;20181;-89
2023/07/31 02:36:12;;;;;;;2.20;1.20;;;15.80;99.90;;;;;;5060395;28;20673;-89
2023/07/31 02:38:40;;;;;;;5.93;1.10;;;15.80;99.90;;;;;;5060352;28;20236;-89
2023/07/31 02:41:06;;;;;;;3.15;1.30;;;15.90;99.90;;;;;;5059920;28;20177;-90
2023/07/31 02:43:31;;;;;;;2.63;1.38;;;15.80;99.90;;;;;;5060039;28;20180;-91
2023/07/31 02:45:59;;;;;;;5.60;1.35;;;15.80;99.90;;;;;;5060068;28;20189;-90
2023/07/31 02:48:31;;;;;;;3.97;1.40;;;15.80;99.90;;;;;;5059917;28;20177;-88
2023/07/31 02:50:57;;;;;;;4.40;1.33;;;15.80;99.90;;;;;;5059965;28;20180;-89
2023/07/31 02:53:23;;;;;;;3.28;1.08;;;15.80;99.90;;;;;;5040250;28;20178;-88
2023/07/31 02:55:48;;;;;;;2.90;1.13;;;15.80;99.90;;;;;;5039815;28;20173;-90
2023/07/31 02:58:19;;;;;;;2.67;1.15;;;15.80;99.90;;;;;;5040159;28;20206;-89
2023/07/31 03:00:45;;;;;;;4.45;1.25;;;15.80;99.90;;;;;;5040248;28;20178;-89
2023/07/31 03:03:11;;;;;;;3.88;1.20;;;15.80;99.90;;;;;;5039909;28;20178;-89
2023/07/31 03:05:37;;;;;;;2.22;1.10;;;15.80;99.90;;;;;;5039763;28;20331;-89
2023/07/31 03:08:06;;;;;;;3.53;1.48;;;15.80;99.90;;;;;;5040270;28;20178;-89
2023/07/31 03:10:32;;;;;;;2.42;1.20;;;15.80;99.90;;;;;;5039499;28;20170;-86
2023/07/31 03:12:58;;;;;;;2.20;1.13;;;15.70;99.90;;;;;;5038467;28;20568;-89
2023/07/31 03:15:23;;;;;;;3.45;1.50;;;15.70;99.90;;;;;;5039589;28;20197;-87
2023/07/31 03:17:50;;;;;;;1.60;1.02;;;15.70;99.90;;;;;;5039473;28;20184;-87
2023/07/31 03:20:16;;;;;;;4.05;1.40;;;15.70;99.90;;;;;;5039578;28;20209;-89
2023/07/31 03:22:42;;;;;;;2.38;1.00;;;15.80;99.90;;;;;;5057113;28;20255;-89
2023/07/31 03:25:09;;;;;;;2.85;1.00;;;15.80;99.90;;;;;;5038936;28;20560;-89
2023/07/31 03:27:36;;;;;;;2.00;1.10;;;15.80;99.90;;;;;;5039376;28;20169;-90
2023/07/31 03:30:03;;;;;;;1.75;1.10;;;15.80;99.90;;;;;;5039607;28;20182;-88
2023/07/31 03:32:29;;;;;;;4.13;1.27;;;15.80;99.90;;;;;;5057090;28;20174;-88
2023/07/31 03:34:54;;;;;;;3.25;1.15;;;15.80;99.90;;;;;;5039351;28;20642;-88
2023/07/31 03:37:24;;;;;;;1.98;0.93;;;15.80;99.90;;;;;;5039273;28;20178;-89
2023/07/31 03:39:50;;;;;;;1.25;0.88;;;15.80;99.90;;;;;;5056783;28;20205;-88
2023/07/31 03:42:16;;;;;;;1.65;0.90;;;15.80;99.90;;;;;;5038624;28;20252;-89
2023/07/31 03:44:41;;;;;;;1.30;0.85;;;15.80;99.90;;;;;;5039246;28;20184;-89
2023/07/31 03:47:07;;;;;;;0.80;0.70;;;15.80;99.90;;;;;;5039135;28;20208;-89
2023/07/31 03:49:33;;;;;;;2.38;1.00;;;15.80;99.90;;;;;;5056893;28;20215;-86
2023/07/31 03:51:58;;;;;;;1.48;1.02;;;15.80;99.90;;;;;;5038791;28;20253;-89
2023/07/31 03:54:24;;;;;;;1.40;0.77;;;15.80;99.90;;;;;;5038731;28;20252;-88
2023/07/31 03:56:50;;;;;;;1.83;0.90;;;15.80;99.90;;;;;;5038846;28;20202;-88
2023/07/31 03:59:17;;;;;;;2.97;1.10;;;15.80;99.90;;;;;;5038611;28;20288;-90
2023/07/31 04:01:43;;;;;;;1.98;1.10;;;15.80;99.90;;;;;;5038808;28;20170;-89
2023/07/31 04:04:10;;;;;;;2.35;1.00;;;15.70;99.90;;;;;;5039459;28;20206;-89
2023/07/31 04:06:36;;;;;;;1.83;0.90;;;15.80;99.90;;;;;;5038897;28;20180;-88
2023/07/31 04:09:08;;;;;;;3.05;1.00;;;15.80;99.90;;;;;;5038588;28;20177;-89
2023/07/31 04:11:33;;;;;;;2.67;1.00;;;15.80;99.90;;;;;;5038484;28;20178;-89
2023/07/31 04:13:59;;;;;;;1.58;0.90;;;15.80;99.90;;;;;;5038280;28;20269;-89
2023/07/31 04:16:24;;;;;;;1.42;0.88;;;15.80;99.90;;;;;;5038380;28;20185;-88
2023/07/31 04:18:50;;;;;;;6.05;1.13;;;15.80;99.90;;;;;;5038252;28;20213;-87
2023/07/31 04:21:17;;;;;;;2.35;0.93;;;15.80;99.90;;;;;;5038490;28;20257;-88
2023/07/31 04:23:43;;;;;;;1.88;1.08;;;15.70;99.90;;;;;;5038110;28;20279;-89
2023/07/31 04:26:08;;;;;;;5.10;1.42;;;15.70;99.90;;;;;;5038437;28;20551;-89
2023/07/31 04:28:39;;;;;;;2.35;0.77;;;15.80;99.90;;;;;;5037959;28;20181;-89
2023/07/31 04:31:05;;;;;;;2.15;0.90;;;15.80;99.90;;;;;;5056053;28;20169;-90
2023/07/31 04:33:31;;;;;;;3.90;1.10;;;15.80;99.90;;;;;;5038155;28;20174;-90
2023/07/31 04:35:56;;;;;;;3.22;1.40;;;15.80;99.90;;;;;;5037414;28;20217;-90
2023/07/31 04:38:27;;;;;;;1.73;1.08;;;15.80;99.90;;;;;;5038248;28;20245;-88
2023/07/31 04:40:53;;;;;;;1.77;1.00;;;15.80;99.90;;;;;;5037991;28;20674;-88
2023/07/31 04:43:19;;;;;;;2.03;1.00;;;15.80;99.90;;;;;;5037682;28;20194;-90
2023/07/31 04:45:50;;;;;;;3.47;0.77;;;15.80;99.90;;;;;;5037851;28;20174;-89
2023/07/31 04:48:17;;;;;;;1.80;0.98;;;15.80;99.90;;;;;;5037951;28;20170;-90
2023/07/31 04:50:42;;;;;;;1.10;1.00;;;15.90;99.90;;;;;;5037981;28;20174;-90
2023/07/31 04:53:08;;;;;;;1.92;1.00;;;15.90;99.90;;;;;;5037788;28;20180;-89
2023/07/31 04:55:34;;;;;;;1.95;0.85;;;15.90;99.90;;;;;;5054335;28;20228;-90
2023/07/31 04:57:59;;;;;;;3.13;1.00;;;15.90;99.90;;;;;;5054044;28;20202;-90
2023/07/31 05:00:27;;;;;;;2.28;1.30;;;15.90;99.90;;;;;;5049765;28;20179;-89
2023/07/31 05:02:53;;;;;;;2.20;1.02;;;15.90;99.90;;;;;;5018096;28;20183;-88
2023/07/31 05:05:19;;;;;;;1.30;0.80;;;15.90;99.90;;;;;;5017711;28;20632;-87
2023/07/31 05:07:44;;;;;;;1.13;0.90;;;15.90;99.90;;;;;;5017986;28;20606;-90
2023/07/31 05:10:14;;;;;;;1.40;0.98;;;15.90;99.90;;;;;;5017984;28;20654;-90
2023/07/31 05:12:40;;;;;;;2.30;1.00;;;16.00;99.90;;;;;;5036215;28;20206;-89
2023/07/31 05:15:06;;;;;;;1.75;1.00;;;15.90;99.90;;;;;;5057573;28;20212;-89
2023/07/31 05:17:32;;;;;;;2.55;1.10;;;15.90;99.90;;;;;;5057554;28;20181;-89
2023/07/31 05:19:58;;;;;;;1.75;0.90;;;15.90;99.90;;;;;;5057349;28;20258;-89
2023/07/31 05:22:24;;;;;;;1.27;0.93;;;15.90;99.90;;;;;;5057475;28;20596;-91
2023/07/31 05:24:50;;;;;;;2.58;0.82;;;15.90;99.90;;;;;;5035958;28;20235;-92
2023/07/31 05:27:18;;;;;;;1.27;0.88;;;15.80;99.90;;;;;;5034653;28;20617;-90
2023/07/31 05:29:44;;;;;;;1.95;0.90;;;15.70;99.90;;;;;;5032918;28;20265;-92
2023/07/31 05:32:10;;;;;;;0.95;0.80;;;15.70;99.90;;;;;;5034573;28;20170;-88
2023/07/31 05:34:36;;;;;;;2.08;1.02;;;15.70;99.90;;;;;;5033989;28;20224;-88
2023/07/31 05:37:01;;;;;;;1.30;0.98;;;15.70;99.90;;;;;;5035175;28;20501;-91
2023/07/31 05:39:29;;;;;;;1.58;0.90;;;15.70;99.90;;;;;;5033884;28;20248;-88
2023/07/31 05:41:55;;;;;;;1.98;1.00;;;15.70;99.90;;;;;;5030824;28;20182;-88
2023/07/31 05:44:20;;;;;;;1.00;0.90;;;15.70;99.90;;;;;;5015255;28;20198;-90
2023/07/31 05:46:46;;;;;;;1.52;1.20;;;15.70;99.90;;;;;;5014734;28;20183;-90
2023/07/31 05:49:22;;;;;;;1.00;0.80;;;15.70;99.90;;;;;;5018236;28;20179;-92
2023/07/31 05:51:48;;;;;;;3.45;1.08;;;15.70;99.90;;;;;;5018228;28;20506;-90
2023/07/31 05:54:13;;;;;;;1.77;1.05;;;15.70;99.90;;;;;;5017914;28;20605;-87
2023/07/31 05:56:39;;;;;;;1.20;0.98;;;15.70;99.90;;;;;;5018149;28;20629;-90
2023/07/31 05:59:05;;;;;;;1.60;1.00;;;15.60;99.90;;;;;;5017787;28;20653;-87
2023/07/31 06:01:31;;;;;;;3.85;1.25;;;15.60;99.90;;;;;;5018216;28;20259;-89
2023/07/31 06:03:57;;;;;;;2.97;1.02;;;15.60;99.90;;;;;;5018045;28;20206;-89
2023/07/31 06:06:22;;;;;;;1.20;0.90;;;15.60;99.90;;;;;;5018033;28;20175;-90
2023/07/31 06:08:48;;;;;;;2.67;0.90;;;15.60;99.90;;;;;;5017979;28;20490;-89
2023/07/31 06:11:14;;;;;;;1.40;0.90;;;15.60;99.90;;;;;;5017729;28;20182;-90
2023/07/31 06:13:39;;;;;;;1.08;0.98;;;15.60;99.90;;;;;;5016781;28;20187;-90
2023/07/31 06:16:06;;;;;;;4.88;1.20;;;15.60;99.90;;;;;;5017635;28;20276;-91
2023/07/31 06:18:34;;;;;;;1.50;1.10;;;15.50;99.90;;;;;;5017814;28;20209;-92
2023/07/31 06:21:08;;;;;;;2.13;1.10;;;15.50;99.90;;;;;;5017575;28;20183;-93
2023/07/31 06:23:34;;;;;;;1.20;1.00;;;15.60;99.90;;;;;;5017382;28;20231;-89
2023/07/31 06:25:59;;;;;;;1.77;1.10;;;15.60;99.90;;;;;;5017305;28;20676;-91
2023/07/31 06:28:29;;;;;;;0.93;0.82;;;15.60;99.90;;;;;;5017127;28;20175;-89
2023/07/31 06:30:58;;;;;;;1.05;0.90;;;15.70;99.90;;;;;;5017561;28;20676;-90
2023/07/31 06:33:24;;;;;;;2.25;1.38;;;15.70;99.90;;;;;;5017482;28;20179;-88
2023/07/31 06:35:50;;;;;;;1.30;1.00;;;15.80;99.90;;;;;;5017411;28;20639;-88
2023/07/31 06:38:19;;;;;;;1.30;1.10;;;15.90;99.90;;;;;;5018355;28;20213;-89
2023/07/31 06:40:44;;;;;;;1.92;1.17;;;16.00;99.90;;;;;;5016615;28;20202;-90
2023/07/31 06:43:10;;;;;;;1.80;1.10;;;16.10;99.90;;;;;;5016317;28;20634;-89
2023/07/31 06:45:36;;;;;;;2.42;1.50;;;16.10;99.90;;;;;;5016870;28;20183;-88
2023/07/31 06:48:03;;;;;;;3.03;1.60;;;16.20;99.90;;;;;;5016683;28;20179;-90
2023/07/31 06:50:33;;;;;;;3.40;1.75;;;16.20;99.90;;;;;;5016543;28;20202;-88
2023/07/31 06:52:59;;;;;;;2.38;1.90;;;16.20;99.90;;;;;;5016695;28;20167;-89
2023/07/31 06:55:26;;;;;;;4.55;2.00;;;16.30;99.90;;;;;;5018040;28;20171;-88
2023/07/31 06:57:53;;;;;;;3.72;2.50;;;16.40;99.90;;;;;;5016756;28;20183;-90
2023/07/31 07:00:33;;;;;;;4.55;2.72;;;16.50;99.90;;;;;;5016278;28;20190;-89
2023/07/31 07:02:59;;;;;;;3.88;2.50;;;16.50;99.90;;;;;;5016923;28;20202;-91
2023/07/31 07:05:24;;;;;;;4.43;2.47;;;16.60;99.90;;;;;;5016989;28;20186;-90
2023/07/31 07:07:53;;;;;;;4.97;2.83;;;16.60;99.90;;;;;;5016742;28;20179;-88
2023/07/31 07:10:41;;;;;;;4.97;3.05;;;16.60;99.90;;;;;;5016647;28;20179;-90
2023/07/31 07:13:07;;;;;;;7.45;3.65;;;16.60;99.90;;;;;;5027707;28;20201;-90
2023/07/31 07:15:32;;;;;;;7.18;3.30;;;16.60;99.90;;;;;;5036186;28;20183;-89
2023/07/31 07:17:58;;;;;;;5.53;3.60;;;16.70;99.90;;;;;;5037467;28;20174;-90
2023/07/31 07:20:24;;;;;;;6.25;3.72;;;16.60;99.90;;;;;;5036239;28;20204;-92
2023/07/31 07:22:50;;;;;;;7.07;3.70;;;16.70;99.90;;;;;;5039215;28;20163;-91
2023/07/31 07:25:15;;;;;;;6.72;3.60;;;16.60;99.90;;;;;;5059571;28;20189;-89
2023/07/31 07:27:41;;;;;;;6.47;4.28;;;16.60;99.90;;;;;;5059352;28;20177;-92
2023/07/31 07:30:14;;;;;;;7.95;4.45;;;16.60;99.90;;;;;;5077283;28;20177;-89
2023/07/31 07:32:40;;;;;;;7.63;4.57;;;16.60;99.90;;;;;;5059315;28;20173;-92
2023/07/31 07:35:06;;;;;;;6.88;4.38;;;16.60;99.90;;;;;;5059341;28;20612;-90
2023/07/31 07:37:32;;;;;;;8.75;4.50;;;16.60;99.90;;;;;;5059286;28;20177;-91
2023/07/31 07:40:13;;;;;;;8.90;5.03;;;16.60;99.90;;;;;;5076976;28;20228;-93
2023/07/31 07:42:38;;;;;;;7.10;5.35;;;16.60;99.90;;;;;;5051194;28;20186;-91
2023/07/31 07:45:05;;;;;;;13.35;5.97;;;16.50;99.90;;;;;;5039036;28;20185;-89
2023/07/31 07:47:30;;;;;;;9.35;5.88;;;16.50;99.90;;;;;;5039047;28;20174;-89
2023/07/31 07:49:56;;;;;;;10.55;6.15;;;16.50;99.90;;;;;;5056939;28;20515;-89
2023/07/31 07:52:22;;;;;;;11.05;6.22;;;16.50;99.90;;;;;;5039094;28;20174;-92
2023/07/31 07:54:48;;;;;;;11.27;6.30;;;16.50;99.90;;;;;;5038620;28;20174;-95
2023/07/31 07:57:13;;;;;;;12.88;6.43;;;16.50;99.90;;;;;;5039068;28;20178;-90
2023/07/31 07:59:40;;;;;;;11.90;6.65;;;16.50;99.90;;;;;;5038773;28;20219;-90
2023/07/31 08:02:08;;;;;;;10.98;6.47;;;16.60;99.90;;;;;;5056734;28;20170;-90
2023/07/31 08:04:34;;;;;;;13.43;6.85;;;16.60;99.90;;;;;;5039053;28;20251;-89
2023/07/31 08:07:00;;;;;;;12.65;6.78;;;16.60;99.90;;;;;;5038950;28;20174;-89
2023/07/31 08:09:26;;;;;;;14.25;6.97;;;16.60;99.90;;;;;;5038606;28;20201;-89
2023/07/31 08:12:01;;;;;;;17.48;7.47;;;16.60;99.90;;;;;;5037564;28;20682;-91
2023/07/31 08:14:27;;;;;;;12.93;8.27;;;16.70;99.90;;;;;;5038607;28;20278;-91
2023/07/31 08:16:53;;;;;;;14.07;8.45;;;16.90;99.90;;;;;;5038664;28;20178;-93
2023/07/31 08:19:19;;;;;;;16.08;8.07;;;17.10;99.90;;;;;;5038576;28;20209;-92
2023/07/31 08:21:49;;;;;;;14.23;7.38;;;17.30;99.90;;;;;;5038487;28;20504;-95
2023/07/31 08:24:15;;;;;;;14.88;7.60;;;17.40;99.90;;;;;;5021732;28;20580;-90
2023/07/31 08:26:41;;;;;;;17.42;7.80;;;17.40;99.90;;;;;;5015363;28;20187;-94
2023/07/31 08:29:06;;;;;;;15.32;7.68;;;17.50;99.90;;;;;;5014997;28;20189;-90
2023/07/31 08:31:35;;;;;;;12.65;6.85;;;17.70;99.90;;;;;;5015307;28;20179;-91
2023/07/31 08:34:01;;;;;;;11.50;6.90;;;17.90;99.90;;;;;;5015223;28;20267;-91
2023/07/31 08:36:27;;;;;;;13.40;6.80;;;17.90;99.90;;;;;;5015243;28;20262;-87
2023/07/31 08:38:52;;;;;;;16.13;6.10;;;17.90;99.90;;;;;;5015140;28;20646;-90
2023/07/31 08:41:18;;;;;;;9.23;5.72;;;17.90;99.90;;;;;;5014911;28;20183;-87
2023/07/31 08:43:46;;;;;;;11.73;6.45;;;17.80;99.90;;;;;;5014736;28;20183;-88
2023/07/31 08:46:11;;;;;;;9.18;5.93;;;17.90;99.90;;;;;;5015046;28;20179;-88
2023/07/31 08:48:38;;;;;;;10.75;5.60;;;17.90;99.90;;;;;;5015310;28;20241;-92
2023/07/31 08:51:14;;;;;;;9.68;6.10;;;18.00;99.90;;;;;;5015173;28;20194;-88
2023/07/31 08:53:40;;;;;;;15.20;6.28;;;18.10;99.90;;;;;;5015076;28;20244;-87
2023/07/31 08:56:06;;;;;;;13.48;6.15;;;18.10;99.90;;;;;;5014851;28;20183;-88
2023/07/31 08:58:33;;;;;;;11.18;5.57;;;18.10;99.90;;;;;;5014327;28;20199;-90
2023/07/31 09:01:09;;;;;;;11.68;5.55;;;18.00;99.90;;;;;;5014801;28;20247;-90
2023/07/31 09:03:37;;;;;;;10.90;5.53;;;17.90;99.90;;;;;;5015050;28;20174;-89
2023/07/31 09:06:06;;;;;;;9.18;4.95;;;17.90;99.90;;;;;;5014850;28;20183;-89
2023/07/31 09:08:32;;;;;;;10.13;5.10;;;17.90;99.90;;;;;;5014697;28;20182;-88
2023/07/31 09:11:09;;;;;;;10.25;5.43;;;17.70;99.90;;;;;;5014622;28;20183;-91
2023/07/31 09:13:35;;;;;;;10.10;4.80;;;17.60;99.90;;;;;;5013696;28;20186;-90
2023/07/31 09:16:00;;;;;;;10.75;5.00;;;17.70;99.90;;;;;;5014464;28;20186;-87
2023/07/31 09:18:26;;;;;;;9.20;4.80;;;17.60;99.90;;;;;;5014596;28;20209;-90
2023/07/31 09:21:10;;;;;;;10.27;4.82;;;17.50;99.90;;;;;;5014306;28;20187;-90
2023/07/31 09:23:43;;;;;;;12.30;5.45;;;17.60;99.90;;;;;;5013980;28;20313;-91
2023/07/31 09:26:10;;;;;;;8.98;4.72;;;17.60;99.90;;;;;;5014345;28;20573;-88
2023/07/31 09:28:35;;;;;;;11.13;5.43;;;17.50;99.90;;;;;;5014061;28;20179;-90
2023/07/31 09:31:01;;;;;;;10.63;5.32;;;17.50;99.90;;;;;;5014153;28;20610;-88
2023/07/31 09:33:27;;;;;;;11.43;5.20;;;17.50;99.90;;;;;;5014297;28;20197;-90
2023/07/31 09:35:52;;;;;;;9.30;5.25;;;17.50;99.90;;;;;;5014162;28;20178;-91
2023/07/31 09:38:18;;;;;;;9.07;5.03;;;17.50;99.90;;;;;;5014110;28;20238;-89
2023/07/31 09:40:47;;;;;;;9.00;4.82;;;17.60;99.90;;;;;;5014187;28;20175;-92
2023/07/31 09:43:19;;;;;;;10.68;4.82;;;17.60;99.90;;;;;;5014978;28;20183;-91
2023/07/31 09:45:45;;;;;;;9.57;4.55;;;17.70;99.90;;;;;;5014263;28;20233;-93
2023/07/31 09:48:16;;;;;;;10.13;5.18;;;17.60;99.90;;;;;;5014072;28;20186;-90
2023/07/31 09:50:44;;;;;;;11.50;5.25;;;17.60;99.90;;;;;;5014124;28;20183;-88
2023/07/31 09:53:10;;;;;;;10.65;4.80;;;17.60;99.90;;;;;;5013424;28;20183;-86
2023/07/31 09:55:37;;;;;;;10.18;4.75;;;17.50;99.90;;;;;;5013760;28;20496;-86
2023/07/31 09:58:07;;;;;;;11.60;4.72;;;17.50;99.90;;;;;;5014850;28;20592;-85
2023/07/31 10:00:34;;;;;;;8.63;4.78;;;17.50;99.90;;;;;;5013898;28;20214;-89
2023/07/31 10:03:02;;;;;;;6.63;4.60;;;17.50;99.90;;;;;;5014849;28;20175;-86
2023/07/31 10:05:53;;;;;;;7.25;4.05;;;17.50;99.90;;;;;;5014932;28;20190;-87
2023/07/31 10:08:21;;;;;;;9.32;4.05;;;17.50;99.90;;;;;;5014066;28;20175;-86
2023/07/31 10:10:47;;;;;;;9.32;4.25;;;17.60;99.90;;;;;;5013928;28;20179;-90
2023/07/31 10:13:16;;;;;;;8.10;3.60;;;17.60;99.90;;;;;;5013185;28;20512;-87
2023/07/31 10:15:43;;;;;;;4.97;3.25;;;17.60;99.90;;;;;;5013901;28;20168;-86
2023/07/31 10:18:10;;;;;;;4.55;2.85;;;17.60;99.90;;;;;;5014014;28;20187;-89
2023/07/31 10:20:36;;;;;;;6.50;3.10;;;17.60;99.90;;;;;;5013620;28;20545;-88
2023/07/31 10:23:06;;;;;;;5.20;2.55;;;17.60;99.90;;;;;;5016154;28;20582;-91
2023/07/31 10:25:36;;;;;;;4.70;3.33;;;17.60;99.90;;;;;;5036755;28;20202;-90
2023/07/31 10:28:02;;;;;;;9.98;3.35;;;17.60;99.90;;;;;;5036546;28;20224;-87
2023/07/31 10:30:34;;;;;;;4.55;2.80;;;17.70;99.90;;;;;;5036570;28;20627;-86
2023/07/31 10:33:02;;;;;;;5.40;2.88;;;17.60;99.90;;;;;;5036912;28;20227;-89
2023/07/31 10:35:28;;;;;;;6.22;2.95;;;17.70;99.90;;;;;;5039686;28;20514;-90
2023/07/31 10:37:54;;;;;;;4.43;3.05;;;17.60;99.90;;;;;;5040300;28;20174;-88
2023/07/31 10:40:29;;;;;;;6.00;3.15;;;17.50;99.90;;;;;;5040096;28;20178;-90
2023/07/31 10:43:02;;;;;;;5.68;2.97;;;17.50;99.90;;;;;;5040199;28;20609;-89
2023/07/31 10:45:36;;;;;;;8.07;3.40;;;17.60;99.90;;;;;;5040238;28;20277;-88
2023/07/31 10:48:20;;;;;;;6.05;3.33;;;17.60;99.90;;;;;;5040041;28;20261;-89
2023/07/31 10:50:49;;;;;;;8.63;3.83;;;17.70;99.90;;;;;;5040307;28;20176;-90
2023/07/31 10:53:28;;;;;;;5.25;2.92;;;17.80;99.90;;;;;;5039970;28;20268;-90
2023/07/31 10:56:04;;;;;;;6.72;3.30;;;17.90;99.90;;;;;;5040026;28;20162;-88
2023/07/31 10:58:32;;;;;;;6.35;3.13;;;17.90;99.90;;;;;;5057390;28;20201;-89
2023/07/31 11:01:07;;;;;;;5.85;2.97;;;18.00;99.90;;;;;;5039931;28;20678;-88
2023/07/31 11:03:49;;;;;;;4.97;3.17;;;18.10;99.90;;;;;;5039513;28;20580;-90
2023/07/31 11:06:16;;;;;;;7.90;3.25;;;18.20;99.90;;;;;;5040050;28;20646;-88
2023/07/31 11:08:47;;;;;;;4.05;2.78;;;18.30;99.90;;;;;;5039656;28;20173;-90
2023/07/31 11:11:15;;;;;;;6.63;2.88;;;18.30;99.90;;;;;;5039690;28;20174;-92
2023/07/31 11:13:54;;;;;;;4.82;3.08;;;18.30;99.90;;;;;;5039229;28;20178;-90
2023/07/31 11:16:24;;;;;;;4.75;2.58;;;18.40;99.90;;;;;;5039660;28;20200;-87
2023/07/31 11:18:52;;;;;;;7.05;2.67;;;18.60;99.90;;;;;;5039381;28;20264;-86
2023/07/31 11:21:20;;;;;;;5.45;2.35;;;18.80;99.90;;;;;;5039443;28;20178;-87
2023/07/31 11:23:55;;;;;;;3.35;2.60;;;19.00;99.90;;;;;;5039587;28;20274;-86
2023/07/31 11:26:23;;;;;;;4.68;2.20;;;19.10;99.90;;;;;;5039382;28;20173;-88
2023/07/31 11:28:49;;;;;;;5.70;2.40;;;19.10;99.90;;;;;;5056904;28;20252;-88
2023/07/31 11:31:15;;;;;;;3.30;1.95;;;19.10;99.90;;;;;;5039457;28;20181;-87
2023/07/31 11:33:43;;;;;;;4.85;2.20;;;19.20;99.90;;;;;;5039184;28;20177;-88
2023/07/31 11:36:20;;;;;;;4.05;2.28;;;19.40;99.90;;;;;;5057055;28;20162;-87
2023/07/31 11:38:45;;;;;;;3.72;1.95;;;19.60;99.90;;;;;;5039423;28;20263;-89
2023/07/31 11:41:15;;;;;;;5.43;2.45;;;19.90;99.90;;;;;;5038613;28;20178;-87
2023/07/31 11:43:43;;;;;;;3.55;1.98;;;20.00;99.90;;;;;;5038028;28;20202;-90
2023/07/31 11:46:09;;;;;;;3.60;1.88;;;20.10;99.90;;;;;;5038318;28;20166;-87
2023/07/31 11:48:37;;;;;;;5.70;2.30;;;20.00;99.90;;;;;;5038910;28;20636;-92
2023/07/31 11:51:10;;;;;;;3.97;1.90;;;19.90;99.90;;;;;;5039051;28;20182;-92
2023/07/31 11:53:55;;;;;;;4.70;2.38;;;19.80;99.90;;;;;;5056644;28;20625;-89
2023/07/31 11:56:23;;;;;;;3.83;1.88;;;19.80;99.90;;;;;;5039125;28;20512;-88
2023/07/31 11:58:58;;;;;;;3.78;2.10;;;19.60;99.90;;;;;;5038615;28;20197;-90
2023/07/31 12:01:24;;;;;;;5.10;2.15;;;19.60;99.90;;;;;;5056819;28;20252;-87
2023/07/31 12:03:50;;;;;;;3.25;1.90;;;19.50;99.90;;;;;;5056254;28;20170;-91
2023/07/31 12:06:20;;;;;;;3.40;2.28;;;19.40;99.90;;;;;;5038914;28;20173;-91
2023/07/31 12:08:47;;;;;;;5.70;2.15;;;19.30;99.90;;;;;;5038656;28;20609;-86
2023/07/31 12:11:17;;;;;;;4.00;2.22;;;19.30;99.90;;;;;;5056313;28;20181;-90
2023/07/31 12:13:48;;;;;;;3.47;2.45;;;19.30;99.90;;;;;;5037228;28;20185;-89
2023/07/31 12:16:14;;;;;;;2.25;1.95;;;19.30;99.90;;;;;;5038470;28;20651;-90
2023/07/31 12:18:39;;;;;;;3.15;2.15;;;19.30;99.90;;;;;;5038619;28;20217;-90
2023/07/31 12:21:07;;;;;;;3.08;2.22;;;19.30;99.90;;;;;;5038314;28;20178;-88
2023/07/31 12:23:35;;;;;;;4.00;2.30;;;19.40;99.90;;;;;;5035905;28;20629;-85
2023/07/31 12:26:05;;;;;;;8.10;2.15;;;19.40;99.90;;;;;;5038408;28;20170;-87
2023/07/31 12:28:35;;;;;;;3.95;2.08;;;19.40;99.90;;;;;;5038219;28;20180;-91
2023/07/31 12:31:01;;;;;;;8.27;2.30;;;19.30;99.90;;;;;;5038584;28;20177;-88
2023/07/31 12:33:40;;;;;;;2.58;1.80;;;19.40;99.90;;;;;;5038133;28;20185;-92
2023/07/31 12:36:15;;;;;;;3.67;1.80;;;19.40;99.90;;;;;;5038048;28;20174;-90
2023/07/31 12:38:42;;;;;;;4.22;1.88;;;19.40;99.90;;;;;;5037938;28;20697;-91
2023/07/31 12:41:08;;;;;;;3.60;2.00;;;19.40;99.90;;;;;;5055556;28;20190;-86
2023/07/31 12:43:37;;;;;;;3.42;1.80;;;19.40;99.90;;;;;;5037621;28;20268;-91
2023/07/31 12:46:03;;;;;;;2.95;1.90;;;19.40;99.90;;;;;;5038176;28;20181;-87
2023/07/31 12:48:29;;;;;;;2.72;1.90;;;19.50;99.90;;;;;;5038087;28;20181;-92